International Virtual Aviation Organisation

Russian Federation and Kazakhstan MCD

 

Карточка аэропорта ULAA

Внимание!
Информация на этой странице в стадии наполнения.
Если вы не увидели какой-то информации, или заметили неточность - пожалуйста сообщите нам!
Спасибо!
Команда RU-STAFF
Название аэропортаТалаги
Название аэропорта (англ.)Talagi
Превышение62 ft. (18.9 m.)
Координаты64°36.018', 40°43.002'
Высота перехода800m
Эшелон переходаQFE>=760mm:FL040; QFE<760=>733:FL050; QFE<733:FL060
Коды ответчика3120-3127
Зона ОрВДАрхангельск РПИ (ULAA)
Данные METARULAA 080230Z 18005MPS 150V210 3400 -SNRA OVC005 01/00 Q0981 R08/590433 NOSIG RMK QBB160 QFE735/0980
Проноз погоды (TAF)ULAA 080200Z 0803/0903 16005MPS 2100 -SNRA BR BKN004 BKN011 TEMPO 0803/0815 19005G12MPS 0500 +SHSNRA BKN002 BKN007CB FM081500 23005MPS 3100 -SHSNRA BR BKN005 BKN011CB TEMPO 0815/0903 23005G13MPS 0600 +SHSNRA BKN003 BKN011CB
NOTAMshow/hide NOTAM
AWOS   TABLE

Информация о ВПП


Диспетчерские позиции

Позывной Наименование органа УВД Частота
ULAA_TWRАрхангельск-Вышка121.8
ULAA_APPАрхангельск-Подход122.0



Спутниковое изображение